Staten Island, New York
Current Conditions -  °F | °C
As of 4:55 PM on Thursday 27 Nov 2014 (Local Time) from KLDJ Reporting Station
Scattered Clouds Scattered Clouds  
Wind Chill: 33°   Ceiling: Unl
Heat Index: 40°   Visibility: 10mi
Dew Point: 33°   Wind: 9mph
Humidity: 77%   Direction: 310°NW
Pressure: 30.04"   Gusts: NA
Location:  40.58°N, 74.13°W
Report Text: KLDJ 272155Z AUTO 31008KT 10SM SCT024 SCT029 04/01 A3004 RMK AO2 T00420005
Loading
Personal Weather Stations






























Interactive Weather Map New forecast layout! Learn more

10-Day Weather Forecast

Advertisements
Track Severe Weather on mobile